createdAt,value
2023-03-22T00:00:29.234Z,11.38
2023-03-22T00:02:57.345Z,11.35
2023-03-22T00:05:25.031Z,11.48
2023-03-22T00:07:55.322Z,11.68
2023-03-22T00:10:23.150Z,12.88
2023-03-22T00:12:50.878Z,11.70
2023-03-22T00:15:18.887Z,11.57
2023-03-22T00:17:46.564Z,16.95
2023-03-22T00:20:14.344Z,11.32
2023-03-22T00:22:42.483Z,12.70
2023-03-22T00:25:10.984Z,12.82
2023-03-22T00:27:38.763Z,12.65
2023-03-22T00:30:07.030Z,13.77
2023-03-22T00:32:37.015Z,12.88
2023-03-22T00:35:06.344Z,12.70
2023-03-22T00:37:39.621Z,13.13
2023-03-22T00:40:10.612Z,12.15
2023-03-22T00:42:39.569Z,11.32
2023-03-22T00:45:09.562Z,12.60
2023-03-22T00:47:37.258Z,13.05
2023-03-22T00:50:06.721Z,12.68
2023-03-22T00:52:34.547Z,12.77
2023-03-22T00:55:02.236Z,12.95
2023-03-22T00:57:29.895Z,12.23
2023-03-22T00:59:59.363Z,11.82
2023-03-22T01:02:30.756Z,12.82
2023-03-22T01:04:59.064Z,12.63
2023-03-22T01:07:26.818Z,12.85
2023-03-22T01:09:54.574Z,11.77
2023-03-22T01:12:22.233Z,11.85
2023-03-22T01:14:49.953Z,12.32
2023-03-22T01:17:17.692Z,11.18
2023-03-22T01:19:45.415Z,11.43
2023-03-22T01:22:13.102Z,11.18
2023-03-22T01:24:40.852Z,11.77
2023-03-22T01:27:08.771Z,11.40
2023-03-22T01:29:36.681Z,11.52
2023-03-22T01:32:05.318Z,11.32
2023-03-22T01:34:33.036Z,12.00
2023-03-22T01:37:00.812Z,11.02
2023-03-22T01:39:28.583Z,11.55
2023-03-22T01:41:56.404Z,10.93
2023-03-22T01:44:25.260Z,11.57
2023-03-22T01:46:53.265Z,11.55
2023-03-22T01:49:33.108Z,12.40
2023-03-22T01:52:05.073Z,11.60
2023-03-22T01:54:44.561Z,10.80
2023-03-22T01:57:13.004Z,12.40
2023-03-22T01:59:42.630Z,12.15
2023-03-22T02:02:12.012Z,11.65
2023-03-22T02:04:40.463Z,12.02
2023-03-22T02:07:16.629Z,12.77
2023-03-22T02:09:44.464Z,14.15
2023-03-22T02:12:41.905Z,14.27
2023-03-22T02:15:39.974Z,14.10
2023-03-22T02:18:32.071Z,13.30
2023-03-22T02:21:17.956Z,13.40
2023-03-22T02:24:10.585Z,14.05
2023-03-22T02:27:08.722Z,13.90
2023-03-22T02:29:39.108Z,12.68
2023-03-22T02:32:25.630Z,13.45
2023-03-22T02:35:18.341Z,13.10
2023-03-22T02:38:22.363Z,12.95
2023-03-22T02:41:02.141Z,11.93
2023-03-22T02:43:39.489Z,12.57
2023-03-22T02:46:21.198Z,12.43
2023-03-22T02:48:55.065Z,13.02
2023-03-22T02:51:30.628Z,13.15
2023-03-22T02:54:11.017Z,11.80
2023-03-22T02:56:47.026Z,13.13
2023-03-22T02:59:16.628Z,11.63
2023-03-22T03:01:51.507Z,11.00
2023-03-22T03:04:25.724Z,10.98
2023-03-22T03:06:57.329Z,11.80
2023-03-22T03:09:26.066Z,10.20
2023-03-22T03:11:54.901Z,9.23
2023-03-22T03:14:28.692Z,9.40
2023-03-22T03:17:09.314Z,9.07
2023-03-22T03:20:09.330Z,9.65
2023-03-22T03:23:21.294Z,9.60
2023-03-22T03:26:15.782Z,8.93
2023-03-22T03:28:46.145Z,9.38
2023-03-22T03:31:32.371Z,9.45
2023-03-22T03:34:25.954Z,9.65
2023-03-22T03:37:09.398Z,8.68
2023-03-22T03:39:43.085Z,9.30
2023-03-22T03:42:14.868Z,8.65
2023-03-22T03:44:43.047Z,8.27
2023-03-22T03:47:12.495Z,8.65
2023-03-22T03:49:40.385Z,9.15
2023-03-22T03:52:08.080Z,7.70
2023-03-22T03:54:35.968Z,7.78
2023-03-22T03:57:04.206Z,5.70
2023-03-22T03:59:32.072Z,4.47
2023-03-22T04:01:59.966Z,5.10
2023-03-22T04:04:29.965Z,5.40
2023-03-22T04:07:00.054Z,5.03
2023-03-22T04:09:30.585Z,4.65
2023-03-22T04:11:59.081Z,4.12
2023-03-22T04:14:27.687Z,4.47
2023-03-22T04:16:56.634Z,4.10
2023-03-22T04:19:24.618Z,4.15
2023-03-22T04:21:54.209Z,4.25
2023-03-22T04:24:23.243Z,4.15
2023-03-22T04:26:50.972Z,3.95
2023-03-22T04:29:18.741Z,4.87
2023-03-22T04:31:46.567Z,3.78
2023-03-22T04:34:14.351Z,4.10
2023-03-22T04:36:42.233Z,3.58
2023-03-22T04:39:12.636Z,4.32
2023-03-22T04:41:40.434Z,3.70
2023-03-22T04:44:08.492Z,3.40
2023-03-22T04:46:37.766Z,4.18
2023-03-22T04:49:07.025Z,4.22
2023-03-22T04:51:34.724Z,4.12
2023-03-22T04:54:02.463Z,4.30
2023-03-22T04:56:30.251Z,3.67
2023-03-22T04:58:57.921Z,4.10
2023-03-22T05:01:25.701Z,4.55
2023-03-22T05:03:53.397Z,4.10
2023-03-22T05:06:21.180Z,4.05
2023-03-22T05:08:48.796Z,3.97
2023-03-22T05:11:18.657Z,4.00
2023-03-22T05:13:46.364Z,3.97
2023-03-22T05:16:14.239Z,3.90
2023-03-22T05:18:46.595Z,4.47
2023-03-22T05:21:16.695Z,3.87
2023-03-22T05:23:45.804Z,3.72
2023-03-22T05:26:17.242Z,3.85
2023-03-22T05:28:45.447Z,3.97
2023-03-22T05:31:15.724Z,4.20
2023-03-22T05:33:43.435Z,3.97
2023-03-22T05:36:12.566Z,4.20
2023-03-22T05:38:40.383Z,3.62
2023-03-22T05:41:08.286Z,4.15
2023-03-22T05:43:36.011Z,5.03
2023-03-22T05:46:09.864Z,4.18
2023-03-22T05:48:38.178Z,3.70
2023-03-22T05:51:10.101Z,4.35
2023-03-22T05:53:37.947Z,3.80
2023-03-22T05:56:05.957Z,4.18
2023-03-22T05:58:34.947Z,4.00
2023-03-22T06:01:07.811Z,3.67
2023-03-22T06:03:35.665Z,4.62
2023-03-22T06:06:03.433Z,3.75
2023-03-22T06:08:31.028Z,4.12
2023-03-22T06:10:58.781Z,4.70
2023-03-22T06:13:26.687Z,4.60
2023-03-22T06:15:55.191Z,4.40
2023-03-22T06:18:22.889Z,4.12
2023-03-22T06:20:50.613Z,5.90
2023-03-22T06:23:18.452Z,4.95
2023-03-22T06:25:46.625Z,5.20
2023-03-22T06:28:14.630Z,4.78
2023-03-22T06:30:42.642Z,5.32
2023-03-22T06:33:10.528Z,5.53
2023-03-22T06:35:38.224Z,6.20
2023-03-22T06:38:06.008Z,5.93
2023-03-22T06:40:33.767Z,6.05
2023-03-22T06:43:05.172Z,5.87
2023-03-22T06:45:34.717Z,5.75
2023-03-22T06:48:02.526Z,6.03
2023-03-22T06:50:30.394Z,5.87
2023-03-22T06:52:58.120Z,5.22
2023-03-22T06:55:26.060Z,6.35
2023-03-22T06:57:53.847Z,6.25
2023-03-22T07:00:21.876Z,5.90
2023-03-22T07:02:52.203Z,6.43
2023-03-22T07:05:20.511Z,5.85
2023-03-22T07:07:48.233Z,6.70
2023-03-22T07:10:16.014Z,6.90
2023-03-22T07:12:43.685Z,6.45
2023-03-22T07:15:12.152Z,6.40
2023-03-22T07:17:39.904Z,5.85
2023-03-22T07:20:08.210Z,5.85
2023-03-22T07:22:36.003Z,6.32
2023-03-22T07:25:03.736Z,4.95
2023-03-22T07:27:31.434Z,5.20
2023-03-22T07:29:59.102Z,4.87
2023-03-22T07:32:26.986Z,5.78
2023-03-22T07:34:54.733Z,5.22
2023-03-22T07:37:22.493Z,5.05
2023-03-22T07:39:50.596Z,5.10
2023-03-22T07:42:18.229Z,4.70
2023-03-22T07:44:48.231Z,4.87
2023-03-22T07:47:15.876Z,4.37
2023-03-22T07:49:44.152Z,4.45
2023-03-22T07:52:12.023Z,4.85
2023-03-22T07:54:40.265Z,4.20
2023-03-22T07:57:08.112Z,4.35
2023-03-22T07:59:37.358Z,4.97
2023-03-22T08:02:06.438Z,4.37
2023-03-22T08:04:35.262Z,4.43
2023-03-22T08:07:03.116Z,4.70
2023-03-22T08:09:30.835Z,4.00
2023-03-22T08:11:58.848Z,5.28
2023-03-22T08:14:35.870Z,4.53
2023-03-22T08:17:06.064Z,4.37
2023-03-22T08:19:34.895Z,4.53
2023-03-22T08:22:02.835Z,4.20
2023-03-22T08:24:30.581Z,4.65
2023-03-22T08:26:58.737Z,4.28
2023-03-22T08:29:26.624Z,4.90
2023-03-22T08:31:54.489Z,4.37
2023-03-22T08:34:22.261Z,4.53
2023-03-22T08:36:50.086Z,4.62
2023-03-22T08:39:17.802Z,4.53
2023-03-22T08:41:45.536Z,5.20
2023-03-22T08:44:13.258Z,5.18
2023-03-22T08:46:41.084Z,5.00
2023-03-22T08:49:11.506Z,4.78
2023-03-22T08:51:40.388Z,5.18
2023-03-22T08:54:08.255Z,4.70
2023-03-22T08:56:39.134Z,4.53
2023-03-22T08:59:09.310Z,4.20
2023-03-22T09:01:38.502Z,4.40
2023-03-22T09:04:08.398Z,4.57
2023-03-22T09:06:38.675Z,4.62
2023-03-22T09:09:06.394Z,4.32
2023-03-22T09:11:34.231Z,3.80
2023-03-22T09:14:01.910Z,3.72
2023-03-22T09:16:29.682Z,4.07
2023-03-22T09:18:57.464Z,4.22
2023-03-22T09:21:25.219Z,3.97
2023-03-22T09:23:52.952Z,5.10
2023-03-22T09:26:20.770Z,4.03
2023-03-22T09:28:48.542Z,4.72
2023-03-22T09:31:19.096Z,3.65
2023-03-22T09:33:48.135Z,3.92
2023-03-22T09:36:15.766Z,4.30
2023-03-22T09:38:43.561Z,3.95
2023-03-22T09:41:20.376Z,4.18
2023-03-22T09:43:55.970Z,4.12
2023-03-22T09:46:45.460Z,4.25
2023-03-22T09:49:18.052Z,4.25
2023-03-22T09:51:49.115Z,4.50
2023-03-22T09:54:34.635Z,4.30
2023-03-22T09:57:38.577Z,4.20
2023-03-22T10:00:12.988Z,4.40
2023-03-22T10:02:46.579Z,4.70
2023-03-22T10:05:24.134Z,4.20
2023-03-22T10:08:20.012Z,4.03
2023-03-22T10:10:48.042Z,4.10
2023-03-22T10:13:20.884Z,4.10
2023-03-22T10:15:58.240Z,3.72
2023-03-22T10:18:41.988Z,4.00
2023-03-22T10:21:12.121Z,3.50
2023-03-22T10:23:52.045Z,3.75
2023-03-22T10:26:30.548Z,3.83
2023-03-22T10:29:04.317Z,3.72
2023-03-22T10:31:34.867Z,4.62
2023-03-22T10:34:07.785Z,3.83
2023-03-22T10:36:39.059Z,3.58
2023-03-22T10:39:13.866Z,3.47
2023-03-22T10:41:42.556Z,3.22
2023-03-22T10:44:18.591Z,4.18
2023-03-22T10:46:47.681Z,4.12
2023-03-22T10:49:24.402Z,4.05
2023-03-22T10:51:55.555Z,3.65
2023-03-22T10:54:26.206Z,2.92
2023-03-22T10:56:54.030Z,3.40
2023-03-22T10:59:43.446Z,3.72
2023-03-22T11:02:20.350Z,3.08
2023-03-22T11:04:57.529Z,3.22
2023-03-22T11:07:38.402Z,3.80
2023-03-22T11:10:09.116Z,3.55
2023-03-22T11:12:42.665Z,3.75
2023-03-22T11:15:33.645Z,4.32
2023-03-22T11:18:07.325Z,3.60
2023-03-22T11:20:36.120Z,3.62
2023-03-22T11:23:08.011Z,2.40
2023-03-22T11:25:37.954Z,2.05
2023-03-22T11:28:05.550Z,1.70
2023-03-22T11:30:35.566Z,1.60
2023-03-22T11:33:20.440Z,1.58
2023-03-22T11:35:55.198Z,1.90
2023-03-22T11:38:45.674Z,1.90
2023-03-22T11:41:32.169Z,2.00
2023-03-22T11:44:04.574Z,1.87
2023-03-22T11:46:33.809Z,1.83
2023-03-22T11:49:15.662Z,1.33
2023-03-22T11:51:45.082Z,2.17
2023-03-22T11:54:30.150Z,2.12
2023-03-22T11:57:02.390Z,2.20
2023-03-22T11:59:37.688Z,1.98
2023-03-22T12:02:11.762Z,1.98
2023-03-22T12:04:42.919Z,1.80
2023-03-22T12:07:17.216Z,1.90
2023-03-22T12:09:52.199Z,1.65
2023-03-22T12:12:28.268Z,1.60
2023-03-22T12:15:02.230Z,1.58
2023-03-22T12:17:41.699Z,1.55
2023-03-22T12:20:12.353Z,2.00
2023-03-22T12:22:44.468Z,1.87
2023-03-22T12:25:17.710Z,1.80
2023-03-22T12:27:49.438Z,1.50
2023-03-22T12:30:34.961Z,1.80
2023-03-22T12:33:10.417Z,1.67
2023-03-22T12:35:43.463Z,1.15
2023-03-22T12:38:17.179Z,1.40
2023-03-22T12:40:45.367Z,1.67
2023-03-22T12:43:25.423Z,1.80
2023-03-22T12:45:59.090Z,1.25
2023-03-22T12:48:46.862Z,1.33
2023-03-22T12:51:16.084Z,1.52
2023-03-22T12:53:48.360Z,1.30
2023-03-22T12:56:20.173Z,1.40
2023-03-22T12:58:52.929Z,1.30
2023-03-22T13:01:40.862Z,1.15
2023-03-22T13:04:30.400Z,1.10
2023-03-22T13:07:31.900Z,1.00
2023-03-22T13:10:01.890Z,1.10
2023-03-22T13:12:32.965Z,1.62
2023-03-22T13:15:05.172Z,1.30
2023-03-22T13:17:34.640Z,1.25
2023-03-22T13:20:08.732Z,1.20
2023-03-22T13:22:39.171Z,0.82
2023-03-22T13:25:18.131Z,1.08
2023-03-22T13:27:58.547Z,1.40
2023-03-22T13:30:48.094Z,1.10
2023-03-22T13:33:22.234Z,1.25
2023-03-22T13:36:07.278Z,0.98
2023-03-22T13:38:42.645Z,1.30
2023-03-22T13:41:30.177Z,1.05
2023-03-22T13:44:00.539Z,1.00
2023-03-22T13:46:37.645Z,1.00
2023-03-22T13:49:49.304Z,1.20
2023-03-22T13:52:28.381Z,1.00
2023-03-22T13:54:58.683Z,1.15
2023-03-22T13:57:42.144Z,1.20
2023-03-22T14:00:33.994Z,0.80
2023-03-22T14:03:06.718Z,1.40
2023-03-22T14:05:38.740Z,1.27
2023-03-22T14:08:07.223Z,1.23
2023-03-22T14:10:41.344Z,1.10
2023-03-22T14:13:24.962Z,1.00
2023-03-22T14:15:57.755Z,1.15
2023-03-22T14:18:30.328Z,1.10
2023-03-22T14:21:34.665Z,0.80
2023-03-22T14:52:45.130Z,1.00
2023-03-22T14:55:20.916Z,0.90
2023-03-22T14:57:52.761Z,0.93
2023-03-22T15:00:23.551Z,1.05
2023-03-22T15:02:58.317Z,0.93
2023-03-22T15:05:29.342Z,1.00
2023-03-22T15:08:09.352Z,0.93
2023-03-22T15:10:39.233Z,0.90
2023-03-22T15:13:09.585Z,0.80
2023-03-22T15:15:43.298Z,0.70
2023-03-22T15:18:15.963Z,1.00
2023-03-22T15:20:46.344Z,0.90
2023-03-22T15:23:39.962Z,0.80
2023-03-22T15:26:13.539Z,0.70
2023-03-22T15:29:04.845Z,0.88
2023-03-22T15:31:35.639Z,0.80
2023-03-22T15:34:05.395Z,0.80
2023-03-22T15:36:36.913Z,0.77
2023-03-22T15:39:21.526Z,0.80
2023-03-22T15:42:00.550Z,0.80
2023-03-22T15:44:34.624Z,0.75
2023-03-22T15:47:15.383Z,1.02
2023-03-22T15:49:57.179Z,0.70
2023-03-22T15:52:30.623Z,0.82
2023-03-22T15:55:03.886Z,0.90
2023-03-22T15:57:55.708Z,1.00
2023-03-22T16:00:29.104Z,1.00
2023-03-22T16:03:09.269Z,0.98
2023-03-22T16:05:39.711Z,0.85
2023-03-22T16:08:09.941Z,0.93
2023-03-22T16:10:40.250Z,0.85
2023-03-22T16:13:21.776Z,0.85
2023-03-22T16:15:50.448Z,0.80
2023-03-22T16:18:20.472Z,0.75
2023-03-22T16:20:50.108Z,0.80
2023-03-22T16:23:23.384Z,0.70
2023-03-22T16:25:51.928Z,0.85
2023-03-22T16:28:19.912Z,1.05
2023-03-22T16:30:47.817Z,0.75
2023-03-22T16:33:17.743Z,0.88
2023-03-22T16:35:47.226Z,0.75
2023-03-22T16:38:18.844Z,0.95
2023-03-22T16:40:51.192Z,0.80
2023-03-22T16:43:20.260Z,0.70
2023-03-22T16:45:50.093Z,0.90
2023-03-22T16:48:18.148Z,1.70
2023-03-22T16:50:47.710Z,2.70
2023-03-22T16:53:18.502Z,2.80
2023-03-22T16:55:48.069Z,2.83
2023-03-22T16:58:16.368Z,3.08
2023-03-22T17:00:44.398Z,3.28
2023-03-22T17:03:24.145Z,4.03
2023-03-22T17:05:52.141Z,7.85
2023-03-22T17:08:21.593Z,9.63
2023-03-22T17:10:49.721Z,6.07
2023-03-22T17:13:18.292Z,5.00
2023-03-22T17:15:50.978Z,4.40
2023-03-22T17:18:19.112Z,5.32
2023-03-22T17:20:48.342Z,5.93
2023-03-22T17:23:16.983Z,5.00
2023-03-22T17:25:48.918Z,3.62
2023-03-22T17:28:17.009Z,3.67
2023-03-22T17:30:45.132Z,4.00
2023-03-22T17:33:14.804Z,4.40
2023-03-22T17:35:43.012Z,3.97
2023-03-22T17:38:11.189Z,3.92
2023-03-22T17:40:49.540Z,4.28
2023-03-22T17:43:20.847Z,4.40
2023-03-22T17:46:31.646Z,3.97
2023-03-22T17:48:36.997Z,4.25
2023-03-22T17:51:05.484Z,4.57
2023-03-22T17:54:24.279Z,4.47
2023-03-22T17:56:51.839Z,4.20
2023-03-22T17:59:09.344Z,4.00
2023-03-22T18:01:37.823Z,5.03
2023-03-22T18:04:05.996Z,4.57
2023-03-22T18:06:34.109Z,4.80
2023-03-22T18:09:02.143Z,4.65
2023-03-22T18:11:30.626Z,4.57
2023-03-22T18:14:13.812Z,4.95
2023-03-22T18:16:53.023Z,5.00
2023-03-22T18:19:22.019Z,5.00
2023-03-22T18:21:58.123Z,4.18
2023-03-22T18:24:28.415Z,4.47
2023-03-22T18:27:10.548Z,4.93
2023-03-22T18:29:39.380Z,4.70
2023-03-22T18:34:55.559Z,5.00
2023-03-22T18:37:24.549Z,5.35
2023-03-22T18:40:32.566Z,5.18
2023-03-22T18:42:48.425Z,5.37
2023-03-22T18:45:20.810Z,5.22
2023-03-22T18:47:49.458Z,5.35
2023-03-22T18:50:17.507Z,5.32
2023-03-22T18:53:06.282Z,4.85
2023-03-22T18:58:03.836Z,5.07
2023-03-22T19:00:31.773Z,4.30
2023-03-22T19:03:00.631Z,4.50
2023-03-22T19:05:28.760Z,4.80
2023-03-22T19:08:16.093Z,4.18
2023-03-22T19:10:44.950Z,4.65
2023-03-22T19:13:13.135Z,4.53
2023-03-22T19:15:46.208Z,4.70
2023-03-22T19:18:17.942Z,4.87
2023-03-22T19:23:17.220Z,4.45
2023-03-22T19:25:45.185Z,4.70
2023-03-22T19:28:13.883Z,4.53
2023-03-22T19:30:42.376Z,5.15
2023-03-22T19:35:48.635Z,5.03
2023-03-22T19:38:17.136Z,5.25
2023-03-22T19:41:34.981Z,6.40
2023-03-22T19:43:33.346Z,6.95
2023-03-22T19:46:01.238Z,9.18
2023-03-22T19:48:29.331Z,8.35
2023-03-22T19:50:57.604Z,9.85
2023-03-22T19:54:03.684Z,8.93
2023-03-22T19:56:14.471Z,10.55
2023-03-22T19:58:42.763Z,9.68
2023-03-22T20:01:12.083Z,10.63
2023-03-22T20:03:41.373Z,7.93
2023-03-22T20:06:12.423Z,8.38
2023-03-22T20:08:41.065Z,7.25
2023-03-22T20:11:09.504Z,7.43
2023-03-22T20:13:43.113Z,7.90
2023-03-22T20:16:11.062Z,6.80
2023-03-22T20:18:39.037Z,6.93
2023-03-22T20:21:07.267Z,6.70
2023-03-22T20:23:35.292Z,6.12
2023-03-22T20:26:05.180Z,7.03
2023-03-22T20:28:34.904Z,7.18
2023-03-22T20:31:11.109Z,6.35
2023-03-22T20:33:39.678Z,7.22
2023-03-22T20:36:08.631Z,6.20
2023-03-22T20:38:37.113Z,6.65
2023-03-22T20:41:05.837Z,8.52
2023-03-22T20:43:33.900Z,8.25
2023-03-22T20:46:01.916Z,7.75
2023-03-22T20:48:29.969Z,7.85
2023-03-22T20:50:58.114Z,8.25
2023-03-22T20:53:26.726Z,7.57
2023-03-22T20:55:56.296Z,9.70
2023-03-22T20:58:26.176Z,9.13
2023-03-22T21:00:54.574Z,8.45
2023-03-22T21:03:23.038Z,8.95
2023-03-22T21:05:50.989Z,8.40
2023-03-22T21:08:19.183Z,8.18
2023-03-22T21:10:47.214Z,7.90
2023-03-22T21:13:15.428Z,8.07
2023-03-22T21:15:43.568Z,8.38
2023-03-22T21:18:15.373Z,7.53
2023-03-22T21:20:43.537Z,8.38
2023-03-22T21:23:11.537Z,8.38
2023-03-22T21:25:39.755Z,8.43
2023-03-22T21:28:11.270Z,8.07
2023-03-22T21:30:40.794Z,7.80
2023-03-22T21:33:08.742Z,8.20
2023-03-22T21:35:37.042Z,7.55
2023-03-22T21:38:11.272Z,8.07
2023-03-22T21:40:39.752Z,6.47
2023-03-22T21:43:07.868Z,7.25
2023-03-22T21:45:36.406Z,6.65
2023-03-22T21:48:04.269Z,6.70
2023-03-22T21:50:32.233Z,6.22
2023-03-22T21:53:00.347Z,7.53
2023-03-22T21:55:33.605Z,6.47
2023-03-22T21:58:01.773Z,6.00
2023-03-22T22:00:31.012Z,6.40
2023-03-22T22:03:02.641Z,6.10
2023-03-22T22:05:31.215Z,5.90
2023-03-22T22:07:59.692Z,5.82
2023-03-22T22:10:30.906Z,5.62
2023-03-22T22:13:00.142Z,5.75
2023-03-22T22:15:28.596Z,5.57
2023-03-22T22:17:56.964Z,5.55
2023-03-22T22:20:27.303Z,5.20
2023-03-22T22:22:55.405Z,5.20
2023-03-22T22:25:23.675Z,5.53
2023-03-22T22:27:51.709Z,5.82
2023-03-22T22:30:19.882Z,4.87
2023-03-22T22:32:48.392Z,4.65
2023-03-22T22:35:16.965Z,5.20
2023-03-22T22:37:45.005Z,5.35
2023-03-22T22:40:16.245Z,4.60
2023-03-22T22:42:44.322Z,4.15
2023-03-22T22:45:12.634Z,5.03
2023-03-22T22:47:40.656Z,4.75
2023-03-22T22:50:11.260Z,4.97
2023-03-22T22:52:40.331Z,4.85
2023-03-22T22:55:11.531Z,4.90
2023-03-22T22:57:40.680Z,4.62
2023-03-22T23:00:16.623Z,5.15
2023-03-22T23:02:44.814Z,4.62
2023-03-22T23:05:13.705Z,4.55
2023-03-22T23:07:41.820Z,5.15
2023-03-22T23:10:10.407Z,5.28
2023-03-22T23:12:38.394Z,4.87
2023-03-22T23:15:12.589Z,4.30
2023-03-22T23:17:50.583Z,5.10
2023-03-22T23:20:20.120Z,4.78
2023-03-22T23:22:51.259Z,4.93
2023-03-22T23:25:21.331Z,5.65
2023-03-22T23:27:49.856Z,4.72
2023-03-22T23:30:17.958Z,4.68
2023-03-22T23:32:45.897Z,4.78
2023-03-22T23:35:15.082Z,4.97
2023-03-22T23:37:44.339Z,4.95
2023-03-22T23:40:12.968Z,5.18
2023-03-22T23:42:41.726Z,5.07
2023-03-22T23:45:10.961Z,5.03
2023-03-22T23:47:41.167Z,4.50
2023-03-22T23:50:09.510Z,4.10
2023-03-22T23:52:37.803Z,4.70
2023-03-22T23:55:07.751Z,4.40
2023-03-22T23:57:35.774Z,4.37
